Time;durP1;ratioP1;P1;durP2;ratioP2;P2;SDS_P1;SDS_P2;PMS_P1;PMS_P2;Temp;Humidity;BMP_temperature;BMP_pressure;BME280_temperature;BME280_humidity;BME280_pressure;Samples;Min_cycle;Max_cycle;Signal;HPM_P1;HPM_P2
2022/10/24 00:02:03;;;;;;;1999.90;999.90;;;15.70;99.90;;;;;;5092855;28;20456;-72
2022/10/24 00:04:29;;;;;;;1999.90;999.90;;;15.70;99.90;;;;;;5091530;28;20987;-69
2022/10/24 00:06:57;;;;;;;1999.90;999.90;;;15.60;99.90;;;;;;5092122;28;20464;-71
2022/10/24 00:09:24;;;;;;;1999.90;999.90;;;15.60;99.90;;;;;;5091478;28;20457;-71
2022/10/24 00:11:51;;;;;;;1999.90;999.90;;;15.60;99.90;;;;;;5091705;28;20456;-71
2022/10/24 00:14:19;;;;;;;1999.90;999.90;;;15.60;99.90;;;;;;5091830;28;20503;-70
2022/10/24 00:16:46;;;;;;;1999.90;999.90;;;15.90;99.90;;;;;;5091323;28;20472;-72
2022/10/24 00:19:13;;;;;;;1999.90;999.90;;;15.60;99.90;;;;;;5128293;22;20493;-68
2022/10/24 00:21:39;;;;;;;1999.90;999.90;;;15.60;99.90;;;;;;5070596;28;20469;-69
2022/10/24 00:24:07;;;;;;;1999.90;999.90;;;15.60;99.90;;;;;;5073259;28;20453;-67
2022/10/24 00:26:34;;;;;;;1999.90;999.90;;;15.80;99.90;;;;;;5070381;28;20457;-67
2022/10/24 00:29:01;;;;;;;1999.90;999.90;;;15.60;99.90;;;;;;5058795;28;20474;-67
2022/10/24 00:31:29;;;;;;;1999.90;999.90;;;15.50;99.90;;;;;;5051443;28;20954;-67
2022/10/24 00:33:58;;;;;;;1999.90;999.90;;;15.50;99.90;;;;;;5053020;28;20478;-69
2022/10/24 00:36:26;;;;;;;1999.90;999.90;;;15.50;99.90;;;;;;5048027;28;20471;-69
2022/10/24 00:38:53;;;;;;;1999.90;999.90;;;15.40;99.90;;;;;;5054939;28;20485;-69
2022/10/24 00:41:25;;;;;;;1999.90;999.90;;;15.40;99.90;;;;;;5049294;28;20478;-70
2022/10/24 00:44:14;;;;;;;1999.90;999.90;;;15.30;99.90;;;;;;5051928;28;20458;-69
2022/10/24 00:46:44;;;;;;;1999.90;999.90;;;15.30;99.90;;;;;;5050770;28;20462;-69
2022/10/24 00:49:15;;;;;;;1999.90;999.90;;;15.30;99.90;;;;;;5052707;28;20566;-69
2022/10/24 00:51:42;;;;;;;1999.90;999.90;;;15.30;99.90;;;;;;5050516;28;20462;-67
2022/10/24 00:54:12;;;;;;;1999.90;999.90;;;15.30;99.90;;;;;;5053710;28;20474;-69
2022/10/24 00:56:42;;;;;;;1999.90;999.90;;;15.30;99.90;;;;;;5050027;28;20466;-69
2022/10/24 00:59:12;;;;;;;1999.90;999.90;;;15.30;99.90;;;;;;5051596;28;20478;-69
2022/10/24 01:01:43;;;;;;;1999.90;999.90;;;15.40;99.90;;;;;;5050212;28;20466;-69
2022/10/24 01:04:11;;;;;;;1999.90;999.90;;;15.40;99.90;;;;;;5052027;28;20462;-69
2022/10/24 01:06:46;;;;;;;1999.90;999.90;;;15.40;99.90;;;;;;5050233;28;20985;-69
2022/10/24 01:09:26;;;;;;;1999.90;999.90;;;15.40;99.90;;;;;;5048911;28;20984;-68
2022/10/24 01:12:03;;;;;;;1999.90;999.90;;;15.30;99.90;;;;;;5049665;28;20462;-69
2022/10/24 01:14:52;;;;;;;1999.90;999.90;;;15.30;99.90;;;;;;5051159;28;20481;-66
2022/10/24 01:17:29;;;;;;;1999.90;999.90;;;15.30;99.90;;;;;;5049852;28;20950;-69
2022/10/24 01:20:33;;;;;;;1999.90;999.90;;;15.30;99.90;;;;;;5052052;28;20962;-68
2022/10/24 01:23:14;;;;;;;1999.90;999.90;;;15.20;99.90;;;;;;5053460;28;20976;-69
2022/10/24 01:25:53;;;;;;;1999.90;999.90;;;15.20;99.90;;;;;;5050306;28;20469;-69
2022/10/24 01:28:24;;;;;;;1999.90;999.90;;;15.30;99.90;;;;;;5050303;28;20490;-69
2022/10/24 01:31:02;;;;;;;1999.90;999.90;;;15.30;99.90;;;;;;5050298;28;20985;-66
2022/10/24 01:33:33;;;;;;;1999.90;999.90;;;15.20;99.90;;;;;;5048225;28;20474;-69
2022/10/24 01:36:06;;;;;;;1999.90;999.90;;;15.30;99.90;;;;;;5052189;28;20488;-68
2022/10/24 01:38:38;;;;;;;1999.90;999.90;;;15.30;99.90;;;;;;5049936;28;20482;-66
2022/10/24 01:41:09;;;;;;;1999.90;999.90;;;15.20;99.90;;;;;;5050276;28;20845;-67
2022/10/24 01:43:41;;;;;;;1999.90;999.90;;;15.20;99.90;;;;;;5051274;28;20570;-67
2022/10/24 01:46:13;;;;;;;1999.90;999.90;;;15.10;99.90;;;;;;5050785;28;20462;-69
2022/10/24 01:48:44;;;;;;;1999.90;999.90;;;15.20;99.90;;;;;;5050823;28;20485;-69
2022/10/24 01:51:13;;;;;;;1999.90;999.90;;;15.20;99.90;;;;;;5049441;28;20990;-66
2022/10/24 01:53:42;;;;;;;1999.90;999.90;;;15.20;99.90;;;;;;5049965;28;21024;-69
2022/10/24 01:56:10;;;;;;;1999.90;999.90;;;15.20;99.90;;;;;;5051376;28;20473;-66
2022/10/24 01:58:37;;;;;;;1999.90;999.90;;;15.30;99.90;;;;;;5051291;28;20486;-66
2022/10/24 02:01:07;;;;;;;1999.90;999.90;;;15.20;99.90;;;;;;5048163;28;20470;-66
2022/10/24 02:03:38;;;;;;;1999.90;999.90;;;15.40;99.90;;;;;;5050227;28;20462;-67
2022/10/24 02:06:09;;;;;;;1999.90;999.90;;;15.60;99.90;;;;;;5052654;28;20469;-67
2022/10/24 02:08:42;;;;;;;1999.90;999.90;;;15.80;99.90;;;;;;5049208;28;20497;-67
2022/10/24 02:11:10;;;;;;;1999.90;999.90;;;15.90;99.90;;;;;;5052609;28;20462;-67
2022/10/24 02:13:44;;;;;;;1999.90;999.90;;;16.10;99.90;;;;;;5050720;28;20486;-68
2022/10/24 02:16:14;;;;;;;1999.90;999.90;;;16.10;99.90;;;;;;5048498;28;20881;-66
2022/10/24 02:18:43;;;;;;;1999.90;999.90;;;16.00;99.90;;;;;;5049579;28;20572;-67
2022/10/24 02:21:19;;;;;;;1999.90;999.90;;;16.00;99.90;;;;;;5050525;28;20454;-66
2022/10/24 02:23:54;;;;;;;1999.90;999.90;;;16.00;99.90;;;;;;5048677;28;20467;-69
2022/10/24 02:26:27;;;;;;;1999.90;999.90;;;16.10;99.90;;;;;;5049100;28;20466;-65
2022/10/24 02:28:58;;;;;;;1999.90;999.90;;;16.20;99.90;;;;;;5049628;28;20497;-68
2022/10/24 02:31:26;;;;;;;1999.90;999.90;;;16.10;99.90;;;;;;5049399;28;20811;-66
2022/10/24 02:33:56;;;;;;;1999.90;999.90;;;15.90;99.90;;;;;;5049930;28;20490;-67
2022/10/24 02:36:28;;;;;;;1999.90;999.90;;;15.70;99.90;;;;;;5052640;28;20458;-67
2022/10/24 02:38:56;;;;;;;1999.90;999.90;;;15.60;99.90;;;;;;5047162;28;20489;-68
2022/10/24 02:41:27;;;;;;;1999.90;999.90;;;15.50;99.90;;;;;;5050316;28;20462;-66
2022/10/24 02:43:56;;;;;;;1999.90;999.90;;;15.50;99.90;;;;;;5050612;28;20549;-67
2022/10/24 02:46:24;;;;;;;1999.90;999.90;;;15.50;99.90;;;;;;5050186;28;20462;-66
2022/10/24 02:48:57;;;;;;;1999.90;999.90;;;15.40;99.90;;;;;;5049327;28;20484;-66
2022/10/24 02:51:27;;;;;;;1999.90;999.90;;;15.30;99.90;;;;;;5051112;28;20457;-67
2022/10/24 02:53:55;;;;;;;1999.90;999.90;;;15.20;99.90;;;;;;5049117;28;20471;-66
2022/10/24 02:56:21;;;;;;;1999.90;999.90;;;15.10;99.90;;;;;;5052196;28;20973;-69
2022/10/24 02:58:48;;;;;;;1999.90;999.90;;;15.00;99.90;;;;;;5047982;28;20493;-68
2022/10/24 03:01:15;;;;;;;1999.90;999.90;;;15.00;99.90;;;;;;5051454;28;20465;-67
2022/10/24 03:03:42;;;;;;;1999.90;999.90;;;14.90;99.90;;;;;;5049408;28;21000;-67
2022/10/24 03:06:10;;;;;;;1999.90;999.90;;;14.80;99.90;;;;;;5050900;28;21101;-66
2022/10/24 03:08:36;;;;;;;1999.90;999.90;;;14.70;99.90;;;;;;5047733;28;20485;-66
2022/10/24 03:11:03;;;;;;;1999.90;999.90;;;14.60;99.90;;;;;;5049079;28;20462;-67
2022/10/24 03:13:30;;;;;;;1999.90;999.90;;;14.50;99.90;;;;;;5047785;28;20973;-66
2022/10/24 03:15:57;;;;;;;1999.90;999.90;;;14.50;99.90;;;;;;5049337;28;20469;-66
2022/10/24 03:18:24;;;;;;;1999.90;999.90;;;14.80;99.90;;;;;;5052331;28;20500;-70
2022/10/24 03:20:51;;;;;;;1999.90;999.90;;;14.90;99.90;;;;;;5048682;28;21009;-67
2022/10/24 03:23:20;;;;;;;1999.90;999.90;;;14.90;99.90;;;;;;5049908;28;20465;-66
2022/10/24 03:25:47;;;;;;;1999.90;999.90;;;14.90;99.90;;;;;;5048076;28;20474;-66
2022/10/24 03:28:14;;;;;;;1999.90;999.90;;;14.80;99.90;;;;;;5053044;28;20481;-67
2022/10/24 03:30:41;;;;;;;1999.90;999.90;;;14.80;99.90;;;;;;5047570;28;20907;-70
2022/10/24 03:33:07;;;;;;;1999.90;999.90;;;14.90;99.90;;;;;;5048727;28;20943;-69
2022/10/24 03:35:35;;;;;;;1999.90;999.90;;;14.90;99.90;;;;;;5051062;28;20482;-67
2022/10/24 03:38:02;;;;;;;1999.90;999.90;;;15.00;99.90;;;;;;5051792;28;20482;-68
2022/10/24 03:40:30;;;;;;;1999.90;999.90;;;15.00;99.90;;;;;;5055697;28;21165;-68
2022/10/24 03:42:57;;;;;;;1999.90;999.90;;;15.00;99.90;;;;;;5049526;28;20457;-68
2022/10/24 03:45:24;;;;;;;1999.90;999.90;;;15.00;99.90;;;;;;5052112;28;20458;-69
2022/10/24 03:47:50;;;;;;;1999.90;999.90;;;15.00;99.90;;;;;;5054142;28;21000;-68
2022/10/24 03:50:18;;;;;;;1999.90;999.90;;;15.00;99.90;;;;;;5051428;28;20462;-68
2022/10/24 03:52:44;;;;;;;1999.90;999.90;;;15.00;99.90;;;;;;5053789;28;20470;-68
2022/10/24 03:55:11;;;;;;;1999.90;999.90;;;15.10;99.90;;;;;;5053590;28;20994;-68
2022/10/24 03:57:40;;;;;;;1999.90;999.90;;;15.00;99.90;;;;;;5052429;28;20486;-66
2022/10/24 04:00:08;;;;;;;1999.90;999.90;;;15.10;99.90;;;;;;5052986;28;20823;-67
2022/10/24 04:02:34;;;;;;;1999.90;999.90;;;15.10;99.90;;;;;;5052799;28;20458;-66
2022/10/24 04:05:01;;;;;;;1999.90;999.90;;;15.10;99.90;;;;;;5051211;28;20825;-69
2022/10/24 04:07:28;;;;;;;1999.90;999.90;;;15.10;99.90;;;;;;5052621;28;20469;-69
2022/10/24 04:09:56;;;;;;;1999.90;999.90;;;15.10;99.90;;;;;;5052704;28;20458;-68
2022/10/24 04:12:22;;;;;;;1999.90;999.90;;;15.10;99.90;;;;;;5056369;28;20559;-67
2022/10/24 04:14:51;;;;;;;1999.90;999.90;;;15.10;99.90;;;;;;5051093;28;21010;-68
2022/10/24 04:17:18;;;;;;;1999.90;999.90;;;15.00;99.90;;;;;;5052383;28;20529;-67
2022/10/24 04:19:44;;;;;;;1999.90;999.90;;;15.00;99.90;;;;;;5050951;28;20983;-69
2022/10/24 04:22:11;;;;;;;1999.90;999.90;;;15.00;99.90;;;;;;5052947;28;20827;-69
2022/10/24 04:24:38;;;;;;;1999.90;999.90;;;15.00;99.90;;;;;;5051789;28;20469;-68
2022/10/24 04:27:05;;;;;;;1999.90;999.90;;;15.00;99.90;;;;;;5052272;28;20962;-68
2022/10/24 04:29:32;;;;;;;1999.90;999.90;;;15.10;99.90;;;;;;5056130;28;20506;-68
2022/10/24 04:32:01;;;;;;;1999.90;999.90;;;15.10;99.90;;;;;;5053043;28;20466;-68
2022/10/24 04:34:27;;;;;;;1999.90;999.90;;;15.10;99.90;;;;;;5046235;28;20478;-68
2022/10/24 04:36:54;;;;;;;1999.90;999.90;;;15.10;99.90;;;;;;5051253;28;20846;-68
2022/10/24 04:39:21;;;;;;;1999.90;999.90;;;15.10;99.90;;;;;;5056477;28;20474;-68
2022/10/24 04:41:48;;;;;;;1999.90;999.90;;;15.20;99.90;;;;;;5051042;28;20966;-68
2022/10/24 04:44:14;;;;;;;1999.90;999.90;;;15.20;99.90;;;;;;5054166;28;20476;-67
2022/10/24 04:46:41;;;;;;;1999.90;999.90;;;15.20;99.90;;;;;;5049795;28;20470;-68
2022/10/24 04:49:09;;;;;;;1999.90;999.90;;;15.20;99.90;;;;;;5051172;28;20478;-66
2022/10/24 04:51:36;;;;;;;1999.90;999.90;;;15.20;99.90;;;;;;5051056;28;20491;-67
2022/10/24 04:54:03;;;;;;;1999.90;999.90;;;15.20;99.90;;;;;;5055231;28;20950;-68
2022/10/24 04:56:30;;;;;;;1999.90;999.90;;;15.20;99.90;;;;;;5051861;28;20461;-68
2022/10/24 04:58:56;;;;;;;1999.90;999.90;;;15.20;99.90;;;;;;5053150;28;20482;-69
2022/10/24 05:01:23;;;;;;;1999.90;999.90;;;15.20;99.90;;;;;;5053541;28;21431;-68
2022/10/24 05:03:50;;;;;;;1999.90;999.90;;;15.30;99.90;;;;;;5055109;28;20490;-69
2022/10/24 05:06:18;;;;;;;1999.90;999.90;;;15.20;99.90;;;;;;5050493;28;20458;-68
2022/10/24 05:08:45;;;;;;;1999.90;999.90;;;15.20;99.90;;;;;;5052666;28;20486;-68
2022/10/24 05:11:12;;;;;;;1999.90;999.90;;;15.20;99.90;;;;;;5059313;28;20457;-68
2022/10/24 05:13:38;;;;;;;1999.90;999.90;;;15.30;99.90;;;;;;5051496;28;20469;-68
2022/10/24 05:16:05;;;;;;;1999.90;999.90;;;15.30;99.90;;;;;;5051351;28;20493;-68
2022/10/24 05:18:32;;;;;;;1999.90;999.90;;;15.20;99.90;;;;;;5048392;28;20495;-68
2022/10/24 05:21:00;;;;;;;1999.90;999.90;;;15.30;99.90;;;;;;5049420;28;20496;-69
2022/10/24 05:23:28;;;;;;;1999.90;999.90;;;15.30;99.90;;;;;;5051575;28;20473;-69
2022/10/24 05:25:55;;;;;;;1999.90;999.90;;;15.40;99.90;;;;;;5049949;28;20462;-70
2022/10/24 05:28:22;;;;;;;1999.90;999.90;;;15.40;99.90;;;;;;5041525;28;20460;-68
2022/10/24 05:30:49;;;;;;;1999.90;999.90;;;15.40;99.90;;;;;;5042988;28;20477;-66
2022/10/24 05:33:16;;;;;;;1999.90;999.90;;;15.40;99.90;;;;;;5050562;28;20879;-68
2022/10/24 05:35:43;;;;;;;1999.90;999.90;;;15.40;99.90;;;;;;5052213;28;20489;-68
2022/10/24 05:38:10;;;;;;;1999.90;999.90;;;15.40;99.90;;;;;;5037541;28;20525;-67
2022/10/24 05:40:38;;;;;;;1999.90;999.90;;;15.40;99.90;;;;;;5052047;28;20450;-67
2022/10/24 05:43:05;;;;;;;1999.90;999.90;;;15.40;99.90;;;;;;5049886;28;21026;-68
2022/10/24 05:45:31;;;;;;;1999.90;999.90;;;15.40;99.90;;;;;;5051364;28;20477;-67
2022/10/24 05:47:58;;;;;;;1999.90;999.90;;;15.50;99.90;;;;;;5053486;28;20487;-68
2022/10/24 05:50:25;;;;;;;1999.90;999.90;;;15.40;99.90;;;;;;5047143;28;20465;-68
2022/10/24 05:52:52;;;;;;;1999.90;999.90;;;15.40;99.90;;;;;;5052668;28;20497;-68
2022/10/24 05:55:19;;;;;;;1999.90;999.90;;;15.40;99.90;;;;;;5051118;28;20497;-69
2022/10/24 05:57:47;;;;;;;1999.90;999.90;;;15.40;99.90;;;;;;5049369;28;20485;-69
2022/10/24 06:00:16;;;;;;;1999.90;999.90;;;15.50;99.90;;;;;;5048563;28;20958;-67
2022/10/24 06:02:43;;;;;;;1999.90;999.90;;;15.40;99.90;;;;;;5059323;28;20472;-68
2022/10/24 06:05:11;;;;;;;1999.90;999.90;;;15.40;99.90;;;;;;5048030;28;20454;-66
2022/10/24 06:07:40;;;;;;;1999.90;999.90;;;15.40;99.90;;;;;;5049980;28;20873;-68
2022/10/24 06:10:08;;;;;;;1999.90;999.90;;;15.40;99.90;;;;;;5053036;28;21035;-68
2022/10/24 06:12:35;;;;;;;1999.90;999.90;;;15.40;99.90;;;;;;5057015;28;20468;-68
2022/10/24 06:15:06;;;;;;;1999.90;999.90;;;15.30;99.90;;;;;;5057583;28;20482;-67
2022/10/24 06:17:32;;;;;;;1999.90;999.90;;;15.30;99.90;;;;;;5058188;28;20472;-68
2022/10/24 06:19:59;;;;;;;1999.90;999.90;;;15.50;99.90;;;;;;5049645;28;20462;-68
2022/10/24 06:22:28;;;;;;;1999.90;999.90;;;15.80;99.90;;;;;;5054662;28;20465;-76
2022/10/24 06:24:55;;;;;;;1999.90;999.90;;;16.20;99.90;;;;;;5060278;28;20472;-69
2022/10/24 06:27:22;;;;;;;1999.90;999.90;;;16.40;99.90;;;;;;5050390;28;20456;-72
2022/10/24 06:29:49;;;;;;;1999.90;999.90;;;16.60;99.90;;;;;;5049662;28;20462;-69
2022/10/24 06:32:17;;;;;;;1999.90;999.90;;;16.70;99.90;;;;;;5057318;28;20450;-68
2022/10/24 06:34:44;;;;;;;1999.90;999.90;;;16.80;99.90;;;;;;5049242;28;21004;-67
2022/10/24 06:37:10;;;;;;;1999.90;999.90;;;16.90;99.90;;;;;;5050330;28;20466;-67
2022/10/24 06:39:37;;;;;;;1999.90;999.90;;;17.00;99.90;;;;;;5051494;28;20474;-68
2022/10/24 06:42:04;;;;;;;1999.90;999.90;;;16.90;99.90;;;;;;5056251;28;20466;-68
2022/10/24 06:44:31;;;;;;;1999.90;999.90;;;17.10;99.90;;;;;;5042687;28;20453;-68
2022/10/24 06:46:58;;;;;;;1999.90;999.90;;;16.80;99.90;;;;;;5050573;28;20454;-68
2022/10/24 06:49:26;;;;;;;1999.90;999.90;;;16.60;99.90;;;;;;5038547;28;20470;-67
2022/10/24 06:51:53;;;;;;;1999.90;999.90;;;16.40;99.90;;;;;;5052492;28;20934;-67
2022/10/24 06:54:20;;;;;;;1999.90;999.90;;;16.20;99.90;;;;;;5051718;28;20939;-69
2022/10/24 06:56:47;;;;;;;1999.90;999.90;;;16.10;99.90;;;;;;5047740;28;20497;-68
2022/10/24 06:59:16;;;;;;;1999.90;999.90;;;16.00;99.90;;;;;;5043942;28;20466;-66
2022/10/24 07:01:43;;;;;;;1999.90;999.90;;;16.10;99.90;;;;;;5051648;28;20466;-67
2022/10/24 07:04:10;;;;;;;1999.90;999.90;;;16.10;99.90;;;;;;5036904;28;20463;-68
2022/10/24 07:06:38;;;;;;;1999.90;999.90;;;16.10;99.90;;;;;;5046592;28;20443;-69
2022/10/24 07:09:06;;;;;;;1999.90;999.90;;;16.00;99.90;;;;;;5031965;28;20478;-70
2022/10/24 07:11:33;;;;;;;1999.90;999.90;;;16.00;99.90;;;;;;5036229;28;20447;-67
2022/10/24 07:14:00;;;;;;;1999.90;999.90;;;16.10;99.90;;;;;;5036771;28;20459;-69
2022/10/24 07:16:27;;;;;;;1999.90;999.90;;;16.10;99.90;;;;;;5051500;28;20489;-68
2022/10/24 07:18:54;;;;;;;1999.90;999.90;;;16.10;99.90;;;;;;5035231;28;20478;-68
2022/10/24 07:21:23;;;;;;;1999.90;999.90;;;16.20;99.90;;;;;;5039806;28;20458;-69
2022/10/24 07:23:52;;;;;;;1999.90;999.90;;;16.20;99.90;;;;;;5055507;28;20939;-68
2022/10/24 07:26:20;;;;;;;1999.90;999.90;;;16.30;99.90;;;;;;5036243;28;20534;-69
2022/10/24 07:28:52;;;;;;;1999.90;999.90;;;16.30;99.90;;;;;;5035632;28;20471;-68
2022/10/24 07:31:20;;;;;;;1999.90;999.90;;;16.40;99.90;;;;;;5044899;28;20466;-70
2022/10/24 07:33:47;;;;;;;1999.90;999.90;;;16.40;99.90;;;;;;5048137;28;20450;-70
2022/10/24 07:36:16;;;;;;;1999.90;999.90;;;16.50;99.90;;;;;;5038276;28;20490;-70
2022/10/24 07:38:43;;;;;;;1999.90;999.90;;;16.60;99.90;;;;;;5054394;28;20466;-67
2022/10/24 07:41:11;;;;;;;1999.90;999.90;;;16.60;99.90;;;;;;5054743;28;20965;-67
2022/10/24 07:43:38;;;;;;;1999.90;999.90;;;16.80;99.90;;;;;;5054481;28;20939;-68
2022/10/24 07:46:06;;;;;;;1999.90;999.90;;;17.00;99.90;;;;;;5051813;28;20455;-68
2022/10/24 07:48:34;;;;;;;1999.90;999.90;;;17.10;99.90;;;;;;5053429;28;20481;-68
2022/10/24 07:51:04;;;;;;;1999.90;999.90;;;17.00;99.90;;;;;;5047602;28;20443;-68
2022/10/24 07:53:31;;;;;;;1999.90;999.90;;;17.00;99.90;;;;;;5035652;28;20440;-69
2022/10/24 07:55:59;;;;;;;1999.90;999.90;;;16.90;99.90;;;;;;5035590;28;20487;-69
2022/10/24 07:58:27;;;;;;;1999.90;999.90;;;16.90;99.90;;;;;;5035345;28;20528;-68
2022/10/24 08:00:55;;;;;;;1999.90;999.90;;;16.80;99.90;;;;;;5050845;28;20470;-68
2022/10/24 08:03:22;;;;;;;1999.90;999.90;;;16.80;99.90;;;;;;5052482;28;20450;-69
2022/10/24 08:05:49;;;;;;;1999.90;999.90;;;16.80;99.90;;;;;;5035106;28;20451;-68
2022/10/24 08:08:16;;;;;;;1999.90;999.90;;;16.90;99.90;;;;;;5042748;28;20574;-69
2022/10/24 08:10:42;;;;;;;1999.90;999.90;;;16.90;99.90;;;;;;5053470;28;20466;-66
2022/10/24 08:13:09;;;;;;;1999.90;999.90;;;17.00;99.90;;;;;;5044781;28;20447;-70
2022/10/24 08:15:37;;;;;;;1999.90;999.90;;;17.10;99.90;;;;;;5033822;28;21052;-68
2022/10/24 08:18:04;;;;;;;1999.90;999.90;;;17.20;99.90;;;;;;5033991;28;20519;-69
2022/10/24 08:20:31;;;;;;;1999.90;999.90;;;17.40;99.90;;;;;;5033827;28;21271;-68
2022/10/24 08:22:58;;;;;;;1999.90;999.90;;;17.80;99.90;;;;;;5033299;28;20473;-69
2022/10/24 08:25:25;;;;;;;1999.90;999.90;;;17.50;99.90;;;;;;5043320;28;21021;-69
2022/10/24 08:27:51;;;;;;;1999.90;999.90;;;17.60;99.90;;;;;;5053910;28;20470;-69
2022/10/24 08:30:19;;;;;;;1999.90;999.90;;;17.60;99.90;;;;;;5054233;28;20453;-68
2022/10/24 08:32:47;;;;;;;1999.90;999.90;;;17.60;99.90;;;;;;5053912;28;20450;-68
2022/10/24 08:35:16;;;;;;;1999.90;999.90;;;17.60;99.90;;;;;;5053669;28;20454;-69
2022/10/24 08:37:44;;;;;;;1999.90;999.90;;;17.60;99.90;;;;;;5053934;28;20847;-71
2022/10/24 08:40:15;;;;;;;1999.90;999.90;;;17.70;99.90;;;;;;5052021;28;20470;-69
2022/10/24 08:42:42;;;;;;;1999.90;999.90;;;17.80;99.90;;;;;;5047729;28;20966;-69
2022/10/24 08:45:14;;;;;;;1999.90;999.90;;;18.00;99.90;;;;;;5033055;28;20454;-68
2022/10/24 08:47:47;;;;;;;1999.90;999.90;;;18.10;99.90;;;;;;5033798;28;20471;-68
2022/10/24 08:50:21;;;;;;;1999.90;999.90;;;18.20;99.90;;;;;;5033780;28;20458;-69
2022/10/24 08:52:51;;;;;;;1999.90;999.90;;;18.20;99.90;;;;;;5039887;28;20466;-67
2022/10/24 08:55:21;;;;;;;1999.90;999.90;;;18.30;99.90;;;;;;5053472;28;20442;-68
2022/10/24 08:57:51;;;;;;;1999.90;999.90;;;18.40;99.90;;;;;;5053683;28;20825;-67
2022/10/24 09:00:21;;;;;;;1999.90;999.90;;;18.50;99.90;;;;;;5053619;28;20446;-68
2022/10/24 09:02:55;;;;;;;1999.90;999.90;;;18.60;99.90;;;;;;5053391;28;20442;-67
2022/10/24 09:05:27;;;;;;;1999.90;999.90;;;18.60;99.90;;;;;;5052844;28;20503;-67
2022/10/24 09:08:00;;;;;;;1999.90;999.90;;;18.60;99.90;;;;;;5050531;28;20868;-67
2022/10/24 09:10:35;;;;;;;1999.90;999.90;;;18.50;99.90;;;;;;5046792;28;20463;-67
2022/10/24 09:13:02;;;;;;;1999.90;999.90;;;18.60;99.90;;;;;;5054273;28;20462;-67
2022/10/24 09:15:31;;;;;;;1999.90;999.90;;;18.60;99.90;;;;;;5049440;28;20839;-67
2022/10/24 09:17:59;;;;;;;1999.90;999.90;;;18.60;99.90;;;;;;5050331;28;20495;-69
2022/10/24 09:20:29;;;;;;;1999.90;999.90;;;18.60;99.90;;;;;;5046874;28;20458;-66
2022/10/24 09:22:58;;;;;;;1999.90;999.90;;;18.70;99.90;;;;;;5053020;28;20495;-66
2022/10/24 09:25:29;;;;;;;1999.90;999.90;;;18.90;99.90;;;;;;5047192;28;20469;-67
2022/10/24 09:27:57;;;;;;;1999.90;999.90;;;18.90;99.90;;;;;;5050096;28;20481;-66
2022/10/24 09:30:26;;;;;;;1999.90;999.90;;;19.30;99.90;;;;;;5053282;28;20458;-67
2022/10/24 09:32:55;;;;;;;1999.90;999.90;;;19.00;99.90;;;;;;5049223;28;20478;-69
2022/10/24 09:35:24;;;;;;;1999.90;999.90;;;18.90;99.90;;;;;;5052936;28;20458;-68
2022/10/24 09:37:55;;;;;;;1999.90;999.90;;;19.00;99.90;;;;;;5049861;28;20497;-67
2022/10/24 09:40:24;;;;;;;1999.90;999.90;;;19.00;99.90;;;;;;5050404;28;20511;-68
2022/10/24 09:42:58;;;;;;;1999.90;999.90;;;19.00;99.90;;;;;;5048993;28;20469;-68
2022/10/24 09:45:46;;;;;;;1999.90;999.90;;;18.90;99.90;;;;;;5051398;28;20434;-70
2022/10/24 09:48:21;;;;;;;1999.90;999.90;;;19.00;99.90;;;;;;5047887;28;20486;-69
2022/10/24 09:50:50;;;;;;;1999.90;999.90;;;19.00;99.90;;;;;;5051300;28;20830;-68
2022/10/24 09:53:27;;;;;;;1999.90;999.90;;;19.00;99.90;;;;;;5047991;28;20458;-68
2022/10/24 09:55:58;;;;;;;1999.90;999.90;;;19.20;99.90;;;;;;5050938;28;20544;-68
2022/10/24 09:58:31;;;;;;;1999.90;999.90;;;19.20;99.90;;;;;;5048641;28;20868;-68
2022/10/24 10:01:00;;;;;;;1999.90;999.90;;;19.10;99.90;;;;;;5049085;28;20504;-69
2022/10/24 10:03:27;;;;;;;1999.90;999.90;;;19.20;99.90;;;;;;5058350;28;20469;-69
2022/10/24 10:05:55;;;;;;;1999.90;999.90;;;19.30;99.90;;;;;;5058657;28;20984;-70
2022/10/24 10:08:25;;;;;;;1999.90;999.90;;;19.60;99.90;;;;;;5061092;28;20500;-68
2022/10/24 10:10:58;;;;;;;1999.90;999.90;;;19.50;99.90;;;;;;5060617;28;20465;-69
2022/10/24 10:13:27;;;;;;;1999.90;999.90;;;19.50;99.90;;;;;;5032044;28;20458;-69
2022/10/24 10:15:55;;;;;;;1999.90;999.90;;;19.50;99.90;;;;;;5030496;28;20520;-66
2022/10/24 10:18:26;;;;;;;1999.90;999.90;;;19.50;99.90;;;;;;5029777;28;20487;-69
2022/10/24 10:21:06;;;;;;;1999.90;999.90;;;19.40;99.90;;;;;;5031201;28;20466;-70
2022/10/24 10:23:36;;;;;;;1999.90;999.90;;;19.40;99.90;;;;;;5030327;28;20520;-68
2022/10/24 10:26:41;;;;;;;1999.90;999.90;;;19.40;99.90;;;;;;5029976;28;20455;-68
2022/10/24 10:29:22;;;;;;;1999.90;999.90;;;19.60;99.90;;;;;;5000857;28;20471;-67
2022/10/24 10:31:52;;;;;;;1999.90;999.90;;;19.60;99.90;;;;;;5030501;28;20447;-66
2022/10/24 10:34:25;;;;;;;1999.90;999.90;;;19.60;99.90;;;;;;5020218;28;20446;-67
2022/10/24 10:37:21;;;;;;;1999.90;999.90;;;19.70;99.90;;;;;;5029734;28;20499;-67
2022/10/24 10:40:13;;;;;;;1999.90;999.90;;;19.70;99.90;;;;;;5028965;28;20462;-68
2022/10/24 10:42:51;;;;;;;1999.90;999.90;;;19.80;99.90;;;;;;5039317;28;20462;-67
2022/10/24 10:45:33;;;;;;;1999.90;999.90;;;20.20;99.90;;;;;;5030378;28;20466;-68
2022/10/24 10:48:12;;;;;;;1999.90;999.90;;;20.00;99.90;;;;;;5018462;28;20495;-69
2022/10/24 10:50:44;;;;;;;1999.90;999.90;;;20.00;99.90;;;;;;5035201;28;20458;-71
2022/10/24 10:53:27;;;;;;;1999.90;999.90;;;20.00;99.90;;;;;;5035356;28;20463;-69
2022/10/24 10:56:02;;;;;;;1999.90;999.90;;;20.10;99.90;;;;;;5025773;28;20435;-68
2022/10/24 10:58:37;;;;;;;1999.90;999.90;;;20.10;99.90;;;;;;5027271;28;20484;-67
2022/10/24 11:01:14;;;;;;;1999.90;999.90;;;20.20;99.90;;;;;;5027580;28;20462;-71
2022/10/24 11:03:48;;;;;;;1999.90;999.90;;;19.90;99.90;;;;;;5029580;28;20477;-67
2022/10/24 11:06:28;;;;;;;1999.90;999.90;;;20.10;99.90;;;;;;5034280;28;20474;-67
2022/10/24 11:09:18;;;;;;;1999.90;999.90;;;20.20;99.90;;;;;;5030495;28;20486;-66
2022/10/24 11:11:52;;;;;;;1999.90;999.90;;;20.10;99.90;;;;;;5023163;28;20462;-68
2022/10/24 11:14:29;;;;;;;1999.90;999.90;;;20.20;99.90;;;;;;5026237;28;20482;-66
2022/10/24 11:17:02;;;;;;;1999.90;999.90;;;20.50;99.90;;;;;;5020042;28;20476;-67
2022/10/24 11:19:39;;;;;;;1999.90;999.90;;;20.20;99.90;;;;;;5011488;28;20495;-71
2022/10/24 11:22:13;;;;;;;1999.90;999.90;;;20.20;99.90;;;;;;5020700;28;20458;-67
2022/10/24 11:24:46;;;;;;;1999.90;999.90;;;20.00;99.90;;;;;;5029177;28;20453;-68
2022/10/24 11:27:21;;;;;;;1999.90;999.90;;;19.90;99.90;;;;;;5023074;28;20466;-68
2022/10/24 11:29:55;;;;;;;1999.90;999.90;;;20.00;99.90;;;;;;5026163;28;20520;-67
2022/10/24 11:32:27;;;;;;;1999.90;999.90;;;20.30;99.90;;;;;;5019286;28;20975;-68
2022/10/24 11:34:59;;;;;;;1999.90;999.90;;;20.50;99.90;;;;;;5010424;28;20448;-68
2022/10/24 11:37:31;;;;;;;1999.90;999.90;;;20.70;99.90;;;;;;5011592;28;20472;-67
2022/10/24 11:40:02;;;;;;;1999.90;999.90;;;21.00;99.90;;;;;;5020871;28;20509;-67
2022/10/24 11:42:39;;;;;;;1999.90;999.90;;;21.30;99.90;;;;;;5025965;28;20473;-68
2022/10/24 11:45:11;;;;;;;1999.90;999.90;;;21.50;99.90;;;;;;5013784;28;20467;-68
2022/10/24 11:47:49;;;;;;;1999.90;999.90;;;21.40;99.90;;;;;;5012082;28;20448;-68
2022/10/24 11:50:24;;;;;;;1999.90;999.90;;;21.20;99.90;;;;;;5012126;28;20459;-67
2022/10/24 11:52:54;;;;;;;1999.90;999.90;;;20.70;99.90;;;;;;5011550;28;20443;-67
2022/10/24 11:55:24;;;;;;;1999.90;999.90;;;20.70;99.90;;;;;;5012509;28;20463;-67
2022/10/24 11:57:56;;;;;;;1999.90;999.90;;;20.70;99.90;;;;;;5026526;28;20951;-68
2022/10/24 12:00:25;;;;;;;1999.90;999.90;;;20.70;99.90;;;;;;5035125;28;20443;-68
2022/10/24 12:03:17;;;;;;;1999.90;999.90;;;20.90;99.90;;;;;;5033487;28;20462;-69
2022/10/24 12:06:12;;;;;;;1999.90;999.90;;;20.70;99.90;;;;;;5034357;28;20443;-68
2022/10/24 12:09:04;;;;;;;1999.90;999.90;;;21.10;99.90;;;;;;5024619;28;20481;-68
2022/10/24 12:11:55;;;;;;;1999.90;999.90;;;21.40;99.90;;;;;;5030415;28;20553;-68
2022/10/24 12:14:56;;;;;;;1999.90;999.90;;;22.00;99.90;;;;;;5023644;28;20474;-74